TOM266 EGNT-HESH
Flight info
| Callsign | TOM266 |
|---|---|
| Flight time | 5h 33m |
| Altitude | 23000 |
| Route | GIRLI P18 GASKO Y250 MAMUL L60 OTBED Y70 BODSO L17 MOLIX/N0442F330 L17 PETIK DCT DODEN DCT NEGIX DCT DINKU M867 XERUM DCT BAVAX DCT RADIZ DCT GIMIX DCT ULPIN/N0448F350 DCT RILIM DCT AIOSA DCT DOLON DCT TOMGI DCT LEVDI DCT INKOP DCT ARLOS UN4 SALUN N705 MMA P751 DASUM Y234 FYM M872 HGD R650 SHM |
| Aircraft | B738/M-SDE2E3FGHIRWXY/LB1 |
Departure
| Time | 2026-05-08 12:34 |
|---|---|
| Airport | Newcastle International Airport (EGNT) |
Arrival
| Time | 2026-05-08 18:07 |
|---|---|
| Airport | Sharm El Sheikh International Airport (HESH) |
| Time | Latitude | Longitude | Altitude | Speed | Heading |
|---|---|---|---|---|---|
| 2026-05-08 11:11 | 55.03666 | -1.70585 | 266 ft | 0 kts | 319° |
| 2026-05-08 12:25 | 55.03666 | -1.70584 | 266 ft | 1 kts | 319° |
| 2026-05-08 12:25 | 55.03648 | -1.70556 | 266 ft | 4 kts | 319° |
| 2026-05-08 12:25 | 55.03631 | -1.70532 | 266 ft | 4 kts | 332° |
| 2026-05-08 12:26 | 55.03608 | -1.70522 | 266 ft | 4 kts | 21° |
| 2026-05-08 12:26 | 55.03593 | -1.70547 | 266 ft | 3 kts | 84° |
| 2026-05-08 12:26 | 55.03591 | -1.70584 | 266 ft | 0 kts | 84° |
| 2026-05-08 12:29 | 55.03592 | -1.70574 | 266 ft | 3 kts | 84° |
| 2026-05-08 12:29 | 55.03599 | -1.70496 | 266 ft | 9 kts | 67° |
| 2026-05-08 12:29 | 55.03670 | -1.70438 | 266 ft | 13 kts | 2° |
| 2026-05-08 12:29 | 55.03761 | -1.70421 | 266 ft | 13 kts | 24° |
| 2026-05-08 12:30 | 55.03777 | -1.70273 | 264 ft | 15 kts | 95° |
| 2026-05-08 12:30 | 55.03773 | -1.70066 | 261 ft | 20 kts | 90° |
| 2026-05-08 12:30 | 55.03788 | -1.69803 | 258 ft | 23 kts | 78° |
| 2026-05-08 12:30 | 55.03827 | -1.69538 | 255 ft | 22 kts | 68° |
| 2026-05-08 12:31 | 55.03890 | -1.69296 | 253 ft | 22 kts | 65° |
| 2026-05-08 12:31 | 55.03954 | -1.69054 | 251 ft | 23 kts | 65° |
| 2026-05-08 12:31 | 55.04029 | -1.68772 | 249 ft | 28 kts | 65° |
| 2026-05-08 12:31 | 55.04116 | -1.68447 | 247 ft | 30 kts | 65° |
| 2026-05-08 12:32 | 55.04203 | -1.68121 | 246 ft | 29 kts | 65° |
| 2026-05-08 12:32 | 55.04284 | -1.67813 | 245 ft | 27 kts | 65° |
| 2026-05-08 12:32 | 55.04331 | -1.67546 | 241 ft | 20 kts | 93° |
| 2026-05-08 12:32 | 55.04286 | -1.67373 | 240 ft | 16 kts | 161° |
| 2026-05-08 12:33 | 55.04216 | -1.67387 | 241 ft | 9 kts | 241° |
| 2026-05-08 12:33 | 55.04186 | -1.67496 | 242 ft | 14 kts | 245° |
| 2026-05-08 12:33 | 55.04046 | -1.68030 | 246 ft | 86 kts | 245° |
| 2026-05-08 12:33 | 55.03694 | -1.69350 | 256 ft | 151 kts | 246° |
| 2026-05-08 12:34 | 55.03230 | -1.71185 | 730 ft | 170 kts | 245° |
| 2026-05-08 12:34 | 55.02721 | -1.73066 | 1641 ft | 170 kts | 243° |
| 2026-05-08 12:34 | 55.02191 | -1.74952 | 2305 ft | 181 kts | 243° |
| 2026-05-08 12:34 | 55.01745 | -1.76283 | 2542 ft | 196 kts | 229° |
| 2026-05-08 12:35 | 55.00540 | -1.77522 | 2721 ft | 220 kts | 193° |
| 2026-05-08 12:35 | 54.98991 | -1.78120 | 3112 ft | 230 kts | 196° |
| 2026-05-08 12:35 | 54.97442 | -1.78858 | 3575 ft | 242 kts | 199° |
| 2026-05-08 12:35 | 54.95796 | -1.79773 | 4166 ft | 251 kts | 200° |
| 2026-05-08 12:36 | 54.94096 | -1.80601 | 4945 ft | 258 kts | 188° |
| 2026-05-08 12:36 | 54.92267 | -1.80609 | 5762 ft | 261 kts | 180° |
| 2026-05-08 12:36 | 54.90468 | -1.80517 | 6529 ft | 264 kts | 181° |
| 2026-05-08 12:36 | 54.88621 | -1.80447 | 7270 ft | 266 kts | 181° |
| 2026-05-08 12:37 | 54.86768 | -1.80399 | 7908 ft | 266 kts | 181° |
| 2026-05-08 12:37 | 54.84903 | -1.80368 | 8615 ft | 269 kts | 181° |
| 2026-05-08 12:37 | 54.83026 | -1.80347 | 9381 ft | 270 kts | 181° |
| 2026-05-08 12:37 | 54.81137 | -1.80333 | 10118 ft | 272 kts | 181° |
| 2026-05-08 12:38 | 54.79199 | -1.80324 | 10508 ft | 288 kts | 181° |
| 2026-05-08 12:38 | 54.77115 | -1.80318 | 10683 ft | 310 kts | 181° |
| 2026-05-08 12:38 | 54.74890 | -1.80312 | 10870 ft | 330 kts | 181° |
| 2026-05-08 12:38 | 54.72550 | -1.80304 | 11288 ft | 341 kts | 181° |
| 2026-05-08 12:39 | 54.70165 | -1.80485 | 11931 ft | 344 kts | 188° |
| 2026-05-08 12:39 | 54.67806 | -1.81203 | 12671 ft | 345 kts | 192° |
| 2026-05-08 12:39 | 54.65446 | -1.82015 | 13342 ft | 347 kts | 192° |
| 2026-05-08 12:39 | 54.63090 | -1.82819 | 13946 ft | 352 kts | 191° |
| 2026-05-08 12:40 | 54.60679 | -1.83617 | 14503 ft | 355 kts | 191° |
| 2026-05-08 12:40 | 54.58241 | -1.84402 | 15090 ft | 357 kts | 191° |
| 2026-05-08 12:40 | 54.55786 | -1.85183 | 15667 ft | 360 kts | 191° |
| 2026-05-08 12:40 | 54.53310 | -1.85965 | 16272 ft | 364 kts | 192° |
| 2026-05-08 12:41 | 54.50806 | -1.86749 | 16904 ft | 366 kts | 192° |
| 2026-05-08 12:41 | 54.48289 | -1.87536 | 17482 ft | 369 kts | 192° |
| 2026-05-08 12:41 | 54.45747 | -1.88331 | 17987 ft | 374 kts | 192° |
| 2026-05-08 12:41 | 54.43177 | -1.89133 | 18518 ft | 377 kts | 192° |
| 2026-05-08 12:42 | 54.40584 | -1.89942 | 19015 ft | 379 kts | 192° |
| 2026-05-08 12:42 | 54.37972 | -1.90759 | 19487 ft | 382 kts | 192° |
| 2026-05-08 12:42 | 54.35349 | -1.91582 | 19927 ft | 385 kts | 192° |
| 2026-05-08 12:42 | 54.32704 | -1.92411 | 20436 ft | 386 kts | 192° |
| 2026-05-08 12:43 | 54.30066 | -1.93236 | 21059 ft | 384 kts | 192° |
| 2026-05-08 12:43 | 54.27439 | -1.94055 | 21533 ft | 386 kts | 193° |
| 2026-05-08 12:43 | 54.24793 | -1.94694 | 21786 ft | 395 kts | 184° |
| 2026-05-08 12:43 | 54.22031 | -1.94187 | 22128 ft | 404 kts | 169° |
| 2026-05-08 12:44 | 54.19366 | -1.92529 | 22493 ft | 413 kts | 154° |
| 2026-05-08 12:44 | 54.16887 | -1.89983 | 22915 ft | 417 kts | 150° |
| 2026-05-08 12:44 | 54.14433 | -1.87334 | 23278 ft | 420 kts | 150° |
| 2026-05-08 12:44 | 54.11951 | -1.84670 | 23616 ft | 423 kts | 151° |
| 2026-05-08 12:45 | 54.09449 | -1.82023 | 23890 ft | 425 kts | 151° |
| 2026-05-08 12:45 | 54.06921 | -1.79385 | 24194 ft | 427 kts | 152° |
| 2026-05-08 12:45 | 54.04372 | -1.76745 | 24490 ft | 429 kts | 152° |
| 2026-05-08 12:45 | 54.01816 | -1.74104 | 24766 ft | 432 kts | 152° |
| 2026-05-08 12:46 | 53.99233 | -1.71438 | 25035 ft | 434 kts | 152° |
| 2026-05-08 12:46 | 53.96649 | -1.68770 | 25300 ft | 436 kts | 152° |
| 2026-05-08 12:46 | 53.94047 | -1.66086 | 25552 ft | 439 kts | 152° |
| 2026-05-08 12:46 | 53.91428 | -1.63388 | 25828 ft | 441 kts | 152° |
| 2026-05-08 12:47 | 53.88802 | -1.60686 | 26093 ft | 443 kts | 152° |
| 2026-05-08 12:47 | 53.86155 | -1.57969 | 26354 ft | 445 kts | 152° |
| 2026-05-08 12:47 | 53.83500 | -1.55247 | 26598 ft | 448 kts | 152° |
| 2026-05-08 12:47 | 53.80823 | -1.52506 | 26834 ft | 450 kts | 152° |
| 2026-05-08 12:48 | 53.78133 | -1.49756 | 27089 ft | 452 kts | 152° |
| 2026-05-08 12:48 | 53.75425 | -1.46991 | 27344 ft | 454 kts | 152° |
| 2026-05-08 12:48 | 53.72716 | -1.44230 | 27571 ft | 456 kts | 152° |
| 2026-05-08 12:48 | 53.69990 | -1.41459 | 27770 ft | 459 kts | 152° |
| 2026-05-08 12:49 | 53.67278 | -1.38708 | 27994 ft | 462 kts | 152° |
| 2026-05-08 12:49 | 53.64516 | -1.35912 | 28240 ft | 463 kts | 152° |
| 2026-05-08 12:49 | 53.61730 | -1.33155 | 28469 ft | 464 kts | 155° |
| 2026-05-08 12:49 | 53.58775 | -1.31008 | 28681 ft | 462 kts | 165° |
| 2026-05-08 12:50 | 53.55677 | -1.29669 | 28921 ft | 459 kts | 174° |
| 2026-05-08 12:50 | 53.52509 | -1.29148 | 29210 ft | 456 kts | 180° |
| 2026-05-08 12:50 | 53.49344 | -1.28821 | 29581 ft | 456 kts | 176° |
| 2026-05-08 12:50 | 53.46274 | -1.27364 | 29825 ft | 467 kts | 155° |
| 2026-05-08 12:51 | 53.43629 | -1.24147 | 30127 ft | 474 kts | 136° |
| 2026-05-08 12:51 | 53.40396 | -1.14543 | 30630 ft | 481 kts | 103° |
| 2026-05-08 12:51 | 53.39804 | -1.09028 | 30870 ft | 482 kts | 97° |
| 2026-05-08 12:52 | 53.39383 | -1.03447 | 31105 ft | 483 kts | 97° |
| 2026-05-08 12:52 | 53.38415 | -0.92373 | 31860 ft | 477 kts | 99° |
| 2026-05-08 12:52 | 53.37875 | -0.86950 | 32072 ft | 479 kts | 98° |
| 2026-05-08 12:53 | 53.37335 | -0.81422 | 32307 ft | 481 kts | 98° |
| 2026-05-08 12:53 | 53.36802 | -0.75897 | 32598 ft | 481 kts | 98° |
| 2026-05-08 12:53 | 53.36267 | -0.70365 | 32921 ft | 479 kts | 98° |
| 2026-05-08 12:53 | 53.35731 | -0.64865 | 33119 ft | 480 kts | 98° |
| 2026-05-08 12:54 | 53.34623 | -0.53765 | 33109 ft | 483 kts | 99° |
| 2026-05-08 12:54 | 53.33509 | -0.42736 | 33098 ft | 479 kts | 99° |
| 2026-05-08 12:55 | 53.32400 | -0.31783 | 33117 ft | 477 kts | 99° |
| 2026-05-08 12:55 | 53.31289 | -0.20858 | 33106 ft | 476 kts | 99° |
| 2026-05-08 12:56 | 53.30168 | -0.09956 | 33107 ft | 476 kts | 99° |
| 2026-05-08 12:56 | 53.29047 | 0.00864 | 33131 ft | 476 kts | 99° |
| 2026-05-08 12:57 | 53.27903 | 0.11776 | 33114 ft | 476 kts | 99° |
| 2026-05-08 12:57 | 53.26748 | 0.22680 | 33135 ft | 477 kts | 99° |
| 2026-05-08 12:58 | 53.25581 | 0.33613 | 33125 ft | 478 kts | 99° |
| 2026-05-08 12:58 | 53.24404 | 0.44539 | 33121 ft | 478 kts | 99° |
| 2026-05-08 12:59 | 53.23204 | 0.55469 | 33139 ft | 478 kts | 98° |
| 2026-05-08 12:59 | 53.21995 | 0.66396 | 33118 ft | 478 kts | 98° |
| 2026-05-08 13:00 | 53.20784 | 0.77236 | 33130 ft | 478 kts | 99° |
| 2026-05-08 13:00 | 53.19563 | 0.88120 | 33130 ft | 477 kts | 99° |
| 2026-05-08 13:01 | 53.18333 | 0.98999 | 33127 ft | 477 kts | 99° |
| 2026-05-08 13:01 | 53.17091 | 1.09858 | 33139 ft | 476 kts | 98° |
| 2026-05-08 13:02 | 53.15842 | 1.20693 | 33131 ft | 475 kts | 98° |
| 2026-05-08 13:02 | 53.14586 | 1.31496 | 33132 ft | 474 kts | 98° |
| 2026-05-08 13:03 | 53.13331 | 1.42197 | 33140 ft | 473 kts | 99° |
| 2026-05-08 13:03 | 53.12062 | 1.52931 | 33146 ft | 472 kts | 99° |
| 2026-05-08 13:04 | 53.10785 | 1.63647 | 33135 ft | 471 kts | 99° |
| 2026-05-08 13:04 | 53.09502 | 1.74318 | 33137 ft | 470 kts | 99° |
| 2026-05-08 13:05 | 53.08213 | 1.84962 | 33136 ft | 468 kts | 99° |
| 2026-05-08 13:05 | 53.06919 | 1.95560 | 33144 ft | 467 kts | 99° |
| 2026-05-08 13:06 | 53.05618 | 2.06142 | 33165 ft | 466 kts | 99° |
| 2026-05-08 13:06 | 53.03750 | 2.16451 | 33166 ft | 467 kts | 110° |
| 2026-05-08 13:07 | 53.01345 | 2.26402 | 33148 ft | 466 kts | 110° |
| 2026-05-08 13:07 | 52.98969 | 2.36412 | 33139 ft | 466 kts | 110° |
| 2026-05-08 13:08 | 52.96633 | 2.46442 | 33142 ft | 465 kts | 110° |
| 2026-05-08 13:08 | 52.94288 | 2.56434 | 33160 ft | 465 kts | 111° |
| 2026-05-08 13:09 | 52.91918 | 2.66414 | 33141 ft | 465 kts | 111° |
| 2026-05-08 13:09 | 52.89543 | 2.76370 | 33143 ft | 464 kts | 111° |
| 2026-05-08 13:10 | 52.87070 | 2.86226 | 33132 ft | 464 kts | 118° |
| 2026-05-08 13:10 | 52.83632 | 2.95232 | 33137 ft | 463 kts | 124° |
| 2026-05-08 13:11 | 52.80029 | 3.04078 | 33143 ft | 463 kts | 124° |
| 2026-05-08 13:11 | 52.76465 | 3.12925 | 33136 ft | 463 kts | 124° |
| 2026-05-08 13:12 | 52.72960 | 3.21738 | 33133 ft | 462 kts | 124° |
| 2026-05-08 13:12 | 52.69440 | 3.30609 | 33129 ft | 461 kts | 124° |
| 2026-05-08 13:13 | 52.65924 | 3.39444 | 33132 ft | 461 kts | 124° |
| 2026-05-08 13:13 | 52.62402 | 3.48261 | 33139 ft | 460 kts | 124° |
| 2026-05-08 13:14 | 52.58875 | 3.57052 | 33130 ft | 460 kts | 124° |
| 2026-05-08 13:14 | 52.55347 | 3.65819 | 33134 ft | 459 kts | 124° |
| 2026-05-08 13:15 | 52.51841 | 3.74500 | 33140 ft | 458 kts | 124° |
| 2026-05-08 13:15 | 52.48314 | 3.83204 | 33147 ft | 458 kts | 124° |
| 2026-05-08 13:16 | 52.44783 | 3.91886 | 33124 ft | 457 kts | 124° |
| 2026-05-08 13:16 | 52.41251 | 4.00542 | 33133 ft | 457 kts | 125° |
| 2026-05-08 13:17 | 52.37712 | 4.09185 | 33123 ft | 456 kts | 125° |
| 2026-05-08 13:17 | 52.34176 | 4.17795 | 33131 ft | 456 kts | 125° |
| 2026-05-08 13:18 | 52.30636 | 4.26383 | 33135 ft | 455 kts | 125° |
| 2026-05-08 13:18 | 52.27093 | 4.34950 | 33127 ft | 455 kts | 125° |
| 2026-05-08 13:19 | 52.23542 | 4.43509 | 33124 ft | 455 kts | 125° |
| 2026-05-08 13:19 | 52.19988 | 4.52045 | 33120 ft | 455 kts | 125° |
| 2026-05-08 13:20 | 52.16430 | 4.60561 | 33113 ft | 455 kts | 125° |
| 2026-05-08 13:20 | 52.12867 | 4.69065 | 33122 ft | 455 kts | 125° |
| 2026-05-08 13:21 | 52.09292 | 4.77566 | 33127 ft | 455 kts | 125° |
| 2026-05-08 13:21 | 52.05713 | 4.86050 | 33117 ft | 455 kts | 125° |
| 2026-05-08 13:22 | 52.02145 | 4.94479 | 33116 ft | 455 kts | 126° |
| 2026-05-08 13:22 | 51.99138 | 5.01561 | 33107 ft | 455 kts | 126° |
| 2026-05-08 13:23 | 51.94955 | 5.11380 | 33097 ft | 454 kts | 126° |
| 2026-05-08 13:23 | 51.91954 | 5.18403 | 33097 ft | 453 kts | 126° |
| 2026-05-08 13:24 | 51.88361 | 5.26785 | 33108 ft | 453 kts | 126° |
| 2026-05-08 13:24 | 51.84762 | 5.35154 | 33107 ft | 452 kts | 126° |
| 2026-05-08 13:25 | 51.81193 | 5.43428 | 33107 ft | 451 kts | 126° |
| 2026-05-08 13:25 | 51.77575 | 5.51786 | 33118 ft | 451 kts | 126° |
| 2026-05-08 13:26 | 51.73998 | 5.60023 | 33117 ft | 450 kts | 127° |
| 2026-05-08 13:26 | 51.70394 | 5.68296 | 33132 ft | 450 kts | 127° |
| 2026-05-08 13:27 | 51.66784 | 5.76557 | 33128 ft | 450 kts | 127° |
| 2026-05-08 13:27 | 51.63172 | 5.84795 | 33134 ft | 450 kts | 127° |
| 2026-05-08 13:28 | 51.59551 | 5.93028 | 33133 ft | 450 kts | 127° |
| 2026-05-08 13:28 | 51.55926 | 6.01245 | 33123 ft | 451 kts | 127° |
| 2026-05-08 13:29 | 51.52293 | 6.09453 | 33130 ft | 450 kts | 127° |
| 2026-05-08 13:29 | 51.48663 | 6.17630 | 33130 ft | 450 kts | 127° |
| 2026-05-08 13:30 | 51.45050 | 6.25741 | 33120 ft | 450 kts | 128° |
| 2026-05-08 13:30 | 51.41408 | 6.33891 | 33126 ft | 450 kts | 128° |
| 2026-05-08 13:31 | 51.37758 | 6.42036 | 33133 ft | 449 kts | 128° |
| 2026-05-08 13:31 | 51.34105 | 6.50159 | 33113 ft | 449 kts | 128° |
| 2026-05-08 13:32 | 51.30451 | 6.58260 | 33123 ft | 449 kts | 128° |
| 2026-05-08 13:32 | 51.26793 | 6.66345 | 33131 ft | 449 kts | 128° |
| 2026-05-08 13:33 | 51.23125 | 6.74428 | 33131 ft | 448 kts | 128° |
| 2026-05-08 13:33 | 51.19463 | 6.82472 | 33130 ft | 448 kts | 128° |
| 2026-05-08 13:34 | 51.15820 | 6.90449 | 33129 ft | 448 kts | 129° |
| 2026-05-08 13:34 | 51.12146 | 6.98469 | 33122 ft | 448 kts | 129° |
| 2026-05-08 13:35 | 51.08470 | 7.06469 | 33113 ft | 447 kts | 129° |
| 2026-05-08 13:35 | 51.04789 | 7.14455 | 33100 ft | 447 kts | 129° |
| 2026-05-08 13:36 | 51.01105 | 7.22424 | 33110 ft | 447 kts | 129° |
| 2026-05-08 13:36 | 50.97411 | 7.30389 | 33105 ft | 448 kts | 129° |
| 2026-05-08 13:37 | 50.93737 | 7.38287 | 33114 ft | 448 kts | 129° |
| 2026-05-08 13:37 | 50.90032 | 7.46229 | 33109 ft | 448 kts | 129° |
| 2026-05-08 13:38 | 50.86315 | 7.54170 | 33115 ft | 448 kts | 129° |
| 2026-05-08 13:38 | 50.82594 | 7.62097 | 33128 ft | 448 kts | 129° |
| 2026-05-08 13:39 | 50.78861 | 7.70025 | 33127 ft | 449 kts | 129° |
| 2026-05-08 13:39 | 50.75125 | 7.77935 | 33130 ft | 449 kts | 129° |
| 2026-05-08 13:40 | 50.71382 | 7.85836 | 33126 ft | 450 kts | 129° |
| 2026-05-08 13:40 | 50.67633 | 7.93727 | 33130 ft | 450 kts | 129° |
| 2026-05-08 13:41 | 50.63872 | 8.01620 | 33128 ft | 450 kts | 129° |
| 2026-05-08 13:41 | 50.60107 | 8.09497 | 33130 ft | 450 kts | 130° |
| 2026-05-08 13:42 | 50.56236 | 8.17233 | 33129 ft | 450 kts | 131° |
| 2026-05-08 13:42 | 50.52326 | 8.24850 | 33123 ft | 450 kts | 131° |
| 2026-05-08 13:43 | 50.48383 | 8.32550 | 33122 ft | 449 kts | 131° |
| 2026-05-08 13:43 | 50.44496 | 8.40152 | 33112 ft | 449 kts | 131° |
| 2026-05-08 13:44 | 50.40582 | 8.47792 | 33123 ft | 449 kts | 131° |
| 2026-05-08 13:44 | 50.36617 | 8.55341 | 33114 ft | 448 kts | 134° |
| 2026-05-08 13:45 | 50.32389 | 8.62487 | 33116 ft | 447 kts | 136° |
| 2026-05-08 13:45 | 50.28107 | 8.69528 | 33106 ft | 447 kts | 136° |
| 2026-05-08 13:46 | 50.23838 | 8.76582 | 33106 ft | 447 kts | 136° |
| 2026-05-08 13:46 | 50.19584 | 8.83642 | 33108 ft | 447 kts | 135° |
| 2026-05-08 13:47 | 50.15324 | 8.90712 | 33104 ft | 446 kts | 135° |
| 2026-05-08 13:47 | 50.11066 | 8.97759 | 33104 ft | 446 kts | 136° |
| 2026-05-08 13:48 | 50.06810 | 9.04783 | 33107 ft | 446 kts | 136° |
| 2026-05-08 13:48 | 50.02549 | 9.11793 | 33108 ft | 446 kts | 136° |
| 2026-05-08 13:49 | 49.98280 | 9.18797 | 33099 ft | 446 kts | 136° |
| 2026-05-08 13:49 | 49.94012 | 9.25781 | 33094 ft | 446 kts | 136° |
| 2026-05-08 13:50 | 49.89737 | 9.32758 | 33113 ft | 446 kts | 136° |
| 2026-05-08 13:50 | 49.85486 | 9.39674 | 33111 ft | 446 kts | 136° |
| 2026-05-08 13:51 | 49.81200 | 9.46630 | 33099 ft | 446 kts | 136° |
| 2026-05-08 13:51 | 49.76913 | 9.53568 | 33100 ft | 446 kts | 136° |
| 2026-05-08 13:52 | 49.72594 | 9.60539 | 33100 ft | 446 kts | 136° |
| 2026-05-08 13:52 | 49.68328 | 9.67406 | 33104 ft | 445 kts | 136° |
| 2026-05-08 13:53 | 49.64031 | 9.74304 | 33096 ft | 445 kts | 136° |
| 2026-05-08 13:53 | 49.59731 | 9.81187 | 33110 ft | 445 kts | 136° |
| 2026-05-08 13:54 | 49.55430 | 9.88053 | 33102 ft | 445 kts | 136° |
| 2026-05-08 13:54 | 49.51125 | 9.94908 | 33103 ft | 445 kts | 136° |
| 2026-05-08 13:55 | 49.46821 | 10.01743 | 33098 ft | 445 kts | 136° |
| 2026-05-08 13:56 | 49.40356 | 10.11973 | 33098 ft | 445 kts | 136° |
| 2026-05-08 13:56 | 49.36031 | 10.18795 | 33104 ft | 445 kts | 136° |
| 2026-05-08 13:57 | 49.31717 | 10.25581 | 33115 ft | 445 kts | 136° |
| 2026-05-08 13:57 | 49.27385 | 10.32380 | 33101 ft | 445 kts | 136° |
| 2026-05-08 13:58 | 49.22935 | 10.38933 | 33116 ft | 442 kts | 146° |
| 2026-05-08 13:58 | 49.17762 | 10.43808 | 33135 ft | 440 kts | 152° |
| 2026-05-08 13:59 | 49.12472 | 10.48504 | 33144 ft | 440 kts | 152° |
| 2026-05-08 13:59 | 49.07194 | 10.53253 | 33144 ft | 441 kts | 152° |
| 2026-05-08 14:00 | 49.01925 | 10.58028 | 33125 ft | 441 kts | 152° |
| 2026-05-08 14:00 | 48.96647 | 10.62807 | 33133 ft | 441 kts | 153° |
| 2026-05-08 14:01 | 48.91369 | 10.67569 | 33129 ft | 441 kts | 153° |
| 2026-05-08 14:01 | 48.86081 | 10.72330 | 33127 ft | 442 kts | 153° |
| 2026-05-08 14:02 | 48.80895 | 10.77360 | 33099 ft | 446 kts | 143° |
| 2026-05-08 14:02 | 48.76565 | 10.84175 | 33098 ft | 450 kts | 136° |
| 2026-05-08 14:03 | 48.72419 | 10.91295 | 33085 ft | 450 kts | 136° |
| 2026-05-08 14:03 | 48.68246 | 10.98371 | 33072 ft | 451 kts | 137° |
| 2026-05-08 14:04 | 48.64040 | 11.05414 | 33084 ft | 451 kts | 137° |
| 2026-05-08 14:04 | 48.59817 | 11.12444 | 33073 ft | 452 kts | 137° |
| 2026-05-08 14:05 | 48.55590 | 11.19460 | 33071 ft | 452 kts | 137° |
| 2026-05-08 14:05 | 48.51349 | 11.26486 | 33050 ft | 453 kts | 137° |
| 2026-05-08 14:06 | 48.47104 | 11.33500 | 33061 ft | 452 kts | 138° |
| 2026-05-08 14:06 | 48.43576 | 11.39315 | 33080 ft | 452 kts | 138° |
| 2026-05-08 14:07 | 48.39334 | 11.46289 | 33064 ft | 451 kts | 139° |
| 2026-05-08 14:07 | 48.34409 | 11.54363 | 33069 ft | 449 kts | 139° |
| 2026-05-08 14:08 | 48.30867 | 11.60154 | 33076 ft | 448 kts | 139° |
| 2026-05-08 14:08 | 48.26648 | 11.67036 | 33059 ft | 447 kts | 140° |
| 2026-05-08 14:09 | 48.22208 | 11.73441 | 33079 ft | 441 kts | 144° |
| 2026-05-08 14:09 | 48.17657 | 11.79588 | 33069 ft | 440 kts | 145° |
| 2026-05-08 14:10 | 48.13113 | 11.85735 | 33063 ft | 440 kts | 144° |
| 2026-05-08 14:10 | 48.08611 | 11.91866 | 33060 ft | 440 kts | 144° |
| 2026-05-08 14:11 | 48.04080 | 11.98043 | 33054 ft | 441 kts | 144° |
| 2026-05-08 14:11 | 47.99549 | 12.04208 | 33046 ft | 441 kts | 145° |
| 2026-05-08 14:12 | 47.95008 | 12.10370 | 33045 ft | 441 kts | 145° |
| 2026-05-08 14:12 | 47.90467 | 12.16516 | 33052 ft | 441 kts | 145° |
| 2026-05-08 14:13 | 47.85913 | 12.22663 | 33045 ft | 441 kts | 145° |
| 2026-05-08 14:13 | 47.81359 | 12.28797 | 33052 ft | 442 kts | 145° |
| 2026-05-08 14:14 | 47.76796 | 12.34926 | 33040 ft | 442 kts | 145° |
| 2026-05-08 14:14 | 47.72258 | 12.41007 | 33039 ft | 442 kts | 145° |
| 2026-05-08 14:15 | 47.67688 | 12.47119 | 33048 ft | 441 kts | 145° |
| 2026-05-08 14:15 | 47.63132 | 12.53193 | 33037 ft | 440 kts | 146° |
| 2026-05-08 14:16 | 47.58347 | 12.58710 | 33049 ft | 434 kts | 151° |
| 2026-05-08 14:16 | 47.53472 | 12.63949 | 33055 ft | 432 kts | 151° |
| 2026-05-08 14:17 | 47.48610 | 12.69168 | 33044 ft | 431 kts | 150° |
| 2026-05-08 14:17 | 47.43767 | 12.74404 | 33034 ft | 431 kts | 150° |
| 2026-05-08 14:18 | 47.38948 | 12.79622 | 33060 ft | 427 kts | 150° |
| 2026-05-08 14:18 | 47.34148 | 12.84807 | 33052 ft | 428 kts | 150° |
| 2026-05-08 14:19 | 47.29352 | 12.89968 | 33051 ft | 427 kts | 150° |
| 2026-05-08 14:19 | 47.24545 | 12.95136 | 33031 ft | 428 kts | 149° |
| 2026-05-08 14:20 | 47.19767 | 13.00271 | 33060 ft | 428 kts | 150° |
| 2026-05-08 14:20 | 47.14923 | 13.05442 | 33006 ft | 432 kts | 150° |
| 2026-05-08 14:21 | 47.10057 | 13.10636 | 33035 ft | 434 kts | 149° |
| 2026-05-08 14:21 | 47.05168 | 13.15848 | 33022 ft | 435 kts | 150° |
| 2026-05-08 14:22 | 47.00250 | 13.21079 | 33154 ft | 440 kts | 150° |
| 2026-05-08 14:22 | 46.97763 | 13.23712 | 33372 ft | 441 kts | 150° |
| 2026-05-08 14:22 | 46.95272 | 13.26349 | 33618 ft | 441 kts | 150° |
| 2026-05-08 14:22 | 46.92785 | 13.28982 | 33950 ft | 440 kts | 151° |
| 2026-05-08 14:23 | 46.90309 | 13.31601 | 34223 ft | 440 kts | 151° |
| 2026-05-08 14:23 | 46.87822 | 13.34227 | 34423 ft | 442 kts | 150° |
| 2026-05-08 14:23 | 46.85323 | 13.36862 | 34597 ft | 443 kts | 150° |
| 2026-05-08 14:23 | 46.82821 | 13.39497 | 34819 ft | 443 kts | 150° |
| 2026-05-08 14:24 | 46.80326 | 13.42124 | 35002 ft | 440 kts | 150° |
| 2026-05-08 14:24 | 46.77878 | 13.44705 | 35026 ft | 429 kts | 150° |
| 2026-05-08 14:24 | 46.75489 | 13.47216 | 35056 ft | 429 kts | 150° |
| 2026-05-08 14:25 | 46.70570 | 13.52357 | 35025 ft | 440 kts | 150° |
| 2026-05-08 14:25 | 46.65549 | 13.57601 | 35050 ft | 448 kts | 150° |
| 2026-05-08 14:26 | 46.60476 | 13.62899 | 35049 ft | 446 kts | 150° |
| 2026-05-08 14:26 | 46.55477 | 13.68108 | 35034 ft | 438 kts | 150° |
| 2026-05-08 14:27 | 46.50333 | 13.72605 | 35047 ft | 424 kts | 165° |
| 2026-05-08 14:27 | 46.44819 | 13.75514 | 35057 ft | 420 kts | 166° |
| 2026-05-08 14:28 | 46.39259 | 13.78398 | 35036 ft | 429 kts | 165° |
| 2026-05-08 14:28 | 46.33592 | 13.81373 | 35040 ft | 437 kts | 165° |
| 2026-05-08 14:29 | 46.27878 | 13.84400 | 35049 ft | 435 kts | 165° |
| 2026-05-08 14:29 | 46.22235 | 13.87397 | 35045 ft | 430 kts | 165° |
| 2026-05-08 14:30 | 46.16622 | 13.90364 | 35034 ft | 429 kts | 165° |
| 2026-05-08 14:30 | 46.11018 | 13.93317 | 35024 ft | 428 kts | 165° |
| 2026-05-08 14:31 | 46.05416 | 13.96263 | 35013 ft | 428 kts | 165° |
| 2026-05-08 14:31 | 45.99867 | 13.99177 | 35011 ft | 426 kts | 165° |
| 2026-05-08 14:32 | 45.91518 | 14.03544 | 35032 ft | 425 kts | 165° |
| 2026-05-08 14:32 | 45.85957 | 14.06446 | 35031 ft | 425 kts | 165° |
| 2026-05-08 14:33 | 45.80391 | 14.09344 | 35019 ft | 425 kts | 165° |
| 2026-05-08 14:33 | 45.74821 | 14.12239 | 35039 ft | 426 kts | 165° |
| 2026-05-08 14:34 | 45.69240 | 14.15134 | 35039 ft | 428 kts | 165° |
| 2026-05-08 14:34 | 45.63635 | 14.18034 | 35028 ft | 429 kts | 165° |
| 2026-05-08 14:35 | 45.58007 | 14.20941 | 35017 ft | 431 kts | 164° |
| 2026-05-08 14:35 | 45.52367 | 14.23848 | 35032 ft | 431 kts | 165° |
| 2026-05-08 14:36 | 45.46739 | 14.26741 | 35022 ft | 434 kts | 164° |
| 2026-05-08 14:36 | 45.41050 | 14.29661 | 35030 ft | 435 kts | 164° |
| 2026-05-08 14:37 | 45.35342 | 14.32584 | 35025 ft | 436 kts | 164° |
| 2026-05-08 14:37 | 45.29634 | 14.35501 | 35019 ft | 436 kts | 164° |
| 2026-05-08 14:38 | 45.23925 | 14.38413 | 35011 ft | 435 kts | 164° |
| 2026-05-08 14:38 | 45.18232 | 14.41310 | 35014 ft | 434 kts | 164° |
| 2026-05-08 14:39 | 45.12585 | 14.44177 | 35019 ft | 433 kts | 164° |
| 2026-05-08 14:39 | 45.06921 | 14.47046 | 35026 ft | 432 kts | 164° |
| 2026-05-08 14:40 | 45.01255 | 14.49910 | 35014 ft | 432 kts | 164° |
| 2026-05-08 14:40 | 44.95600 | 14.52763 | 35026 ft | 431 kts | 164° |
| 2026-05-08 14:41 | 44.89948 | 14.55608 | 35020 ft | 431 kts | 164° |
| 2026-05-08 14:41 | 44.84286 | 14.58452 | 35026 ft | 431 kts | 164° |
| 2026-05-08 14:42 | 44.78636 | 14.61284 | 35015 ft | 431 kts | 164° |
| 2026-05-08 14:42 | 44.72985 | 14.64114 | 35017 ft | 432 kts | 163° |
| 2026-05-08 14:43 | 44.67677 | 14.68205 | 35016 ft | 442 kts | 146° |
| 2026-05-08 14:43 | 44.62856 | 14.73572 | 35019 ft | 443 kts | 145° |
| 2026-05-08 14:44 | 44.58035 | 14.78977 | 35017 ft | 443 kts | 145° |
| 2026-05-08 14:44 | 44.53193 | 14.84339 | 35024 ft | 444 kts | 146° |
| 2026-05-08 14:45 | 44.48328 | 14.89679 | 35017 ft | 445 kts | 146° |
| 2026-05-08 14:45 | 44.43482 | 14.94975 | 35020 ft | 445 kts | 146° |
| 2026-05-08 14:46 | 44.38588 | 15.00311 | 35010 ft | 446 kts | 146° |
| 2026-05-08 14:46 | 44.33692 | 15.05639 | 35017 ft | 446 kts | 146° |
| 2026-05-08 14:47 | 44.28790 | 15.10963 | 35021 ft | 447 kts | 146° |
| 2026-05-08 14:47 | 44.23875 | 15.16290 | 35023 ft | 447 kts | 146° |
| 2026-05-08 14:48 | 44.18964 | 15.21600 | 35019 ft | 447 kts | 146° |
| 2026-05-08 14:48 | 44.14040 | 15.26914 | 35011 ft | 447 kts | 146° |
| 2026-05-08 14:49 | 44.09110 | 15.32222 | 35021 ft | 447 kts | 146° |
| 2026-05-08 14:49 | 44.04190 | 15.37507 | 35028 ft | 447 kts | 146° |
| 2026-05-08 14:50 | 43.99299 | 15.42750 | 35017 ft | 447 kts | 146° |
| 2026-05-08 14:50 | 43.94377 | 15.48016 | 35016 ft | 446 kts | 146° |
| 2026-05-08 14:51 | 43.89459 | 15.53266 | 35012 ft | 445 kts | 146° |
| 2026-05-08 14:51 | 43.84571 | 15.58472 | 35010 ft | 445 kts | 146° |
| 2026-05-08 14:52 | 43.77208 | 15.66294 | 34996 ft | 444 kts | 146° |
| 2026-05-08 14:53 | 43.72306 | 15.71488 | 35004 ft | 444 kts | 146° |
| 2026-05-08 14:53 | 43.67400 | 15.76675 | 35018 ft | 444 kts | 146° |
| 2026-05-08 14:54 | 43.63324 | 15.80976 | 35007 ft | 444 kts | 146° |
| 2026-05-08 14:54 | 43.58403 | 15.86158 | 35011 ft | 445 kts | 146° |
| 2026-05-08 14:55 | 43.53480 | 15.91332 | 35011 ft | 445 kts | 146° |
| 2026-05-08 14:55 | 43.48550 | 15.96502 | 35006 ft | 446 kts | 146° |
| 2026-05-08 14:56 | 43.43612 | 16.01671 | 35000 ft | 446 kts | 146° |
| 2026-05-08 14:56 | 43.38675 | 16.06827 | 35015 ft | 446 kts | 146° |
| 2026-05-08 14:57 | 43.33738 | 16.11972 | 35016 ft | 445 kts | 146° |
| 2026-05-08 14:57 | 43.28802 | 16.17106 | 35009 ft | 445 kts | 146° |
| 2026-05-08 14:58 | 43.23867 | 16.22228 | 34991 ft | 445 kts | 146° |
| 2026-05-08 14:58 | 43.18932 | 16.27339 | 35005 ft | 444 kts | 146° |
| 2026-05-08 14:59 | 43.14006 | 16.32429 | 35011 ft | 443 kts | 146° |
| 2026-05-08 14:59 | 43.06623 | 16.40040 | 35015 ft | 442 kts | 145° |
| 2026-05-08 15:00 | 43.01709 | 16.45093 | 35000 ft | 442 kts | 145° |
| 2026-05-08 15:00 | 42.96792 | 16.50138 | 35019 ft | 442 kts | 145° |
| 2026-05-08 15:01 | 42.91875 | 16.55173 | 35023 ft | 442 kts | 145° |
| 2026-05-08 15:01 | 42.86940 | 16.60215 | 35016 ft | 444 kts | 145° |
| 2026-05-08 15:02 | 42.82020 | 16.65232 | 35012 ft | 445 kts | 145° |
| 2026-05-08 15:02 | 42.77052 | 16.70289 | 34997 ft | 446 kts | 146° |
| 2026-05-08 15:03 | 42.72070 | 16.75349 | 35015 ft | 447 kts | 146° |
| 2026-05-08 15:03 | 42.67072 | 16.80407 | 35012 ft | 448 kts | 147° |
| 2026-05-08 15:04 | 42.61611 | 16.84356 | 35020 ft | 445 kts | 159° |
| 2026-05-08 15:04 | 42.55909 | 16.87662 | 35004 ft | 446 kts | 159° |
| 2026-05-08 15:05 | 42.50196 | 16.90992 | 35010 ft | 447 kts | 159° |
| 2026-05-08 15:05 | 42.44488 | 16.94366 | 35005 ft | 448 kts | 159° |
| 2026-05-08 15:06 | 42.38769 | 16.97761 | 35006 ft | 449 kts | 159° |
| 2026-05-08 15:06 | 42.33045 | 17.01155 | 34992 ft | 449 kts | 159° |
| 2026-05-08 15:07 | 42.27355 | 17.04519 | 35007 ft | 449 kts | 159° |
| 2026-05-08 15:07 | 42.21637 | 17.07892 | 35006 ft | 449 kts | 159° |
| 2026-05-08 15:08 | 42.16867 | 17.10701 | 34997 ft | 449 kts | 159° |
| 2026-05-08 15:08 | 42.10178 | 17.14633 | 34991 ft | 448 kts | 159° |
| 2026-05-08 15:09 | 42.04459 | 17.17985 | 35003 ft | 448 kts | 159° |
| 2026-05-08 15:09 | 41.98749 | 17.21327 | 35001 ft | 448 kts | 159° |
| 2026-05-08 15:10 | 41.93033 | 17.24643 | 34997 ft | 447 kts | 161° |
| 2026-05-08 15:10 | 41.87098 | 17.26937 | 34998 ft | 443 kts | 170° |
| 2026-05-08 15:11 | 41.81081 | 17.28857 | 35002 ft | 445 kts | 170° |
| 2026-05-08 15:11 | 41.75083 | 17.30802 | 35003 ft | 447 kts | 170° |
| 2026-05-08 15:12 | 41.69019 | 17.32820 | 34979 ft | 450 kts | 170° |
| 2026-05-08 15:12 | 41.62930 | 17.34865 | 34993 ft | 452 kts | 170° |
| 2026-05-08 15:13 | 41.56822 | 17.36914 | 34998 ft | 454 kts | 170° |
| 2026-05-08 15:13 | 41.50687 | 17.38966 | 34997 ft | 455 kts | 170° |
| 2026-05-08 15:14 | 41.44535 | 17.41020 | 34994 ft | 456 kts | 170° |
| 2026-05-08 15:14 | 41.38376 | 17.43072 | 34988 ft | 456 kts | 170° |
| 2026-05-08 15:15 | 41.32233 | 17.45114 | 34981 ft | 454 kts | 170° |
| 2026-05-08 15:15 | 41.26144 | 17.47134 | 34962 ft | 453 kts | 171° |
| 2026-05-08 15:16 | 41.20029 | 17.49158 | 34979 ft | 452 kts | 171° |
| 2026-05-08 15:16 | 41.13923 | 17.51176 | 34979 ft | 452 kts | 171° |
| 2026-05-08 15:17 | 41.07822 | 17.53187 | 34972 ft | 452 kts | 171° |
| 2026-05-08 15:17 | 41.01703 | 17.55200 | 34963 ft | 456 kts | 172° |
| 2026-05-08 15:18 | 40.95470 | 17.57244 | 34986 ft | 466 kts | 171° |
| 2026-05-08 15:18 | 40.89193 | 17.59305 | 34976 ft | 470 kts | 171° |
| 2026-05-08 15:19 | 40.82868 | 17.61267 | 34928 ft | 461 kts | 173° |
| 2026-05-08 15:19 | 40.76601 | 17.63105 | 34948 ft | 463 kts | 174° |
| 2026-05-08 15:20 | 40.70271 | 17.64954 | 34948 ft | 468 kts | 174° |
| 2026-05-08 15:20 | 40.63871 | 17.66840 | 34940 ft | 473 kts | 174° |
| 2026-05-08 15:21 | 40.57430 | 17.68745 | 34921 ft | 476 kts | 174° |
| 2026-05-08 15:21 | 40.50946 | 17.70662 | 34936 ft | 478 kts | 174° |
| 2026-05-08 15:22 | 40.44448 | 17.72579 | 34934 ft | 478 kts | 174° |
| 2026-05-08 15:22 | 40.37952 | 17.74491 | 34898 ft | 477 kts | 175° |
| 2026-05-08 15:23 | 40.31523 | 17.76378 | 34933 ft | 476 kts | 175° |
| 2026-05-08 15:23 | 40.25058 | 17.78273 | 34943 ft | 475 kts | 175° |
| 2026-05-08 15:24 | 40.18612 | 17.80157 | 34941 ft | 475 kts | 175° |
| 2026-05-08 15:24 | 40.12170 | 17.82037 | 34944 ft | 473 kts | 175° |
| 2026-05-08 15:25 | 40.05749 | 17.83906 | 34949 ft | 473 kts | 175° |
| 2026-05-08 15:25 | 39.99323 | 17.85772 | 34961 ft | 473 kts | 175° |
| 2026-05-08 15:26 | 39.92888 | 17.87637 | 34937 ft | 474 kts | 176° |
| 2026-05-08 15:26 | 39.86450 | 17.89501 | 34960 ft | 474 kts | 176° |
| 2026-05-08 15:27 | 39.79998 | 17.91364 | 34958 ft | 476 kts | 176° |
| 2026-05-08 15:27 | 39.73520 | 17.93232 | 34971 ft | 477 kts | 175° |
| 2026-05-08 15:28 | 39.67078 | 17.95087 | 34958 ft | 477 kts | 175° |
| 2026-05-08 15:28 | 39.60560 | 17.96960 | 34958 ft | 477 kts | 176° |
| 2026-05-08 15:29 | 39.54111 | 17.98810 | 34961 ft | 477 kts | 176° |
| 2026-05-08 15:29 | 39.47625 | 18.00666 | 34941 ft | 477 kts | 175° |
| 2026-05-08 15:30 | 39.41141 | 18.02519 | 34961 ft | 476 kts | 176° |
| 2026-05-08 15:30 | 39.34672 | 18.04363 | 34964 ft | 476 kts | 176° |
| 2026-05-08 15:31 | 39.28204 | 18.06203 | 34962 ft | 475 kts | 176° |
| 2026-05-08 15:31 | 39.21750 | 18.08036 | 34963 ft | 475 kts | 176° |
| 2026-05-08 15:32 | 39.15299 | 18.09865 | 34961 ft | 474 kts | 176° |
| 2026-05-08 15:32 | 39.08865 | 18.11685 | 34961 ft | 473 kts | 176° |
| 2026-05-08 15:33 | 39.02435 | 18.13501 | 34938 ft | 472 kts | 175° |
| 2026-05-08 15:33 | 38.96015 | 18.15310 | 34957 ft | 472 kts | 176° |
| 2026-05-08 15:34 | 38.89645 | 18.17102 | 34962 ft | 471 kts | 176° |
| 2026-05-08 15:34 | 38.83195 | 18.18912 | 34965 ft | 471 kts | 176° |
| 2026-05-08 15:35 | 38.76828 | 18.20695 | 34957 ft | 471 kts | 175° |
| 2026-05-08 15:35 | 38.70409 | 18.22492 | 34966 ft | 472 kts | 175° |
| 2026-05-08 15:36 | 38.65072 | 18.23992 | 34967 ft | 473 kts | 175° |
| 2026-05-08 15:36 | 38.57557 | 18.26103 | 34937 ft | 474 kts | 175° |
| 2026-05-08 15:37 | 38.51113 | 18.27909 | 34959 ft | 474 kts | 175° |
| 2026-05-08 15:37 | 38.44668 | 18.29710 | 34970 ft | 474 kts | 175° |
| 2026-05-08 15:38 | 38.38215 | 18.31509 | 34969 ft | 475 kts | 175° |
| 2026-05-08 15:38 | 38.31747 | 18.33309 | 34956 ft | 475 kts | 175° |
| 2026-05-08 15:39 | 38.25323 | 18.35095 | 34972 ft | 475 kts | 175° |
| 2026-05-08 15:39 | 38.18863 | 18.36887 | 34976 ft | 475 kts | 175° |
| 2026-05-08 15:40 | 38.12406 | 18.38675 | 34977 ft | 475 kts | 175° |
| 2026-05-08 15:40 | 38.05961 | 18.40457 | 34968 ft | 473 kts | 175° |
| 2026-05-08 15:41 | 38.00576 | 18.41943 | 34974 ft | 472 kts | 175° |
| 2026-05-08 15:41 | 37.94165 | 18.43709 | 34970 ft | 471 kts | 175° |
| 2026-05-08 15:42 | 37.87773 | 18.45466 | 34974 ft | 469 kts | 175° |
| 2026-05-08 15:42 | 37.81442 | 18.47204 | 34966 ft | 467 kts | 175° |
| 2026-05-08 15:43 | 37.75100 | 18.48942 | 34978 ft | 466 kts | 175° |
| 2026-05-08 15:43 | 37.68784 | 18.50669 | 34982 ft | 464 kts | 175° |
| 2026-05-08 15:44 | 37.62469 | 18.52392 | 34968 ft | 463 kts | 174° |
| 2026-05-08 15:44 | 37.56180 | 18.54106 | 34978 ft | 462 kts | 174° |
| 2026-05-08 15:45 | 37.49899 | 18.55815 | 34984 ft | 462 kts | 174° |
| 2026-05-08 15:45 | 37.43608 | 18.57523 | 34987 ft | 462 kts | 174° |
| 2026-05-08 15:46 | 37.37327 | 18.59225 | 34975 ft | 462 kts | 174° |
| 2026-05-08 15:46 | 37.31038 | 18.60927 | 34988 ft | 462 kts | 174° |
| 2026-05-08 15:47 | 37.24747 | 18.62627 | 34993 ft | 463 kts | 174° |
| 2026-05-08 15:47 | 37.18444 | 18.64327 | 34992 ft | 464 kts | 174° |
| 2026-05-08 15:48 | 37.09003 | 18.66868 | 34989 ft | 464 kts | 174° |
| 2026-05-08 15:49 | 37.02680 | 18.68567 | 34994 ft | 465 kts | 174° |
| 2026-05-08 15:49 | 36.96342 | 18.70266 | 34998 ft | 466 kts | 174° |
| 2026-05-08 15:50 | 36.89998 | 18.71964 | 35001 ft | 466 kts | 174° |
| 2026-05-08 15:50 | 36.83650 | 18.73660 | 35002 ft | 466 kts | 174° |
| 2026-05-08 15:51 | 36.77312 | 18.75351 | 34998 ft | 466 kts | 174° |
| 2026-05-08 15:51 | 36.70965 | 18.77041 | 35000 ft | 466 kts | 174° |
| 2026-05-08 15:52 | 36.64623 | 18.78727 | 34993 ft | 465 kts | 174° |
| 2026-05-08 15:52 | 36.58297 | 18.80405 | 35001 ft | 465 kts | 174° |
| 2026-05-08 15:53 | 36.52085 | 18.82489 | 34988 ft | 476 kts | 158° |
| 2026-05-08 15:53 | 36.49323 | 18.84818 | 35019 ft | 485 kts | 141° |
| 2026-05-08 15:53 | 36.47130 | 18.88040 | 35001 ft | 493 kts | 123° |
| 2026-05-08 15:54 | 36.43667 | 18.95394 | 35007 ft | 493 kts | 122° |
| 2026-05-08 15:54 | 36.40212 | 19.02757 | 34979 ft | 493 kts | 123° |
| 2026-05-08 15:55 | 36.36700 | 19.10067 | 34997 ft | 492 kts | 123° |
| 2026-05-08 15:55 | 36.31389 | 19.20960 | 35002 ft | 491 kts | 123° |
| 2026-05-08 15:56 | 36.27843 | 19.28207 | 35005 ft | 491 kts | 123° |
| 2026-05-08 15:56 | 36.24302 | 19.35435 | 35004 ft | 491 kts | 123° |
| 2026-05-08 15:57 | 36.20756 | 19.42661 | 35003 ft | 490 kts | 123° |
| 2026-05-08 15:57 | 36.17209 | 19.49874 | 35011 ft | 490 kts | 124° |
| 2026-05-08 15:58 | 36.13690 | 19.57016 | 35005 ft | 489 kts | 124° |
| 2026-05-08 15:58 | 36.10141 | 19.64200 | 35006 ft | 489 kts | 124° |
| 2026-05-08 15:59 | 36.06593 | 19.71370 | 35002 ft | 488 kts | 124° |
| 2026-05-08 15:59 | 36.03046 | 19.78523 | 35000 ft | 487 kts | 124° |
| 2026-05-08 16:00 | 35.99506 | 19.85646 | 35004 ft | 486 kts | 124° |
| 2026-05-08 16:00 | 35.95971 | 19.92744 | 34993 ft | 485 kts | 124° |
| 2026-05-08 16:01 | 35.92453 | 19.99793 | 35006 ft | 484 kts | 124° |
| 2026-05-08 16:01 | 35.88920 | 20.06858 | 35003 ft | 484 kts | 124° |
| 2026-05-08 16:02 | 35.85375 | 20.13932 | 34988 ft | 483 kts | 125° |
| 2026-05-08 16:02 | 35.81840 | 20.20970 | 35004 ft | 483 kts | 125° |
| 2026-05-08 16:03 | 35.78303 | 20.28000 | 35004 ft | 483 kts | 125° |
| 2026-05-08 16:03 | 35.74759 | 20.35027 | 35005 ft | 483 kts | 125° |
| 2026-05-08 16:04 | 35.71235 | 20.42002 | 35007 ft | 483 kts | 125° |
| 2026-05-08 16:04 | 35.67676 | 20.49033 | 34986 ft | 484 kts | 126° |
| 2026-05-08 16:05 | 35.64102 | 20.56077 | 35007 ft | 485 kts | 126° |
| 2026-05-08 16:05 | 35.60520 | 20.63122 | 35020 ft | 487 kts | 126° |
| 2026-05-08 16:06 | 35.56922 | 20.70187 | 35017 ft | 489 kts | 126° |
| 2026-05-08 16:06 | 35.53653 | 20.77549 | 35026 ft | 493 kts | 119° |
| 2026-05-08 16:07 | 35.50696 | 20.85190 | 35011 ft | 496 kts | 119° |
| 2026-05-08 16:07 | 35.47758 | 20.92786 | 35025 ft | 496 kts | 119° |
| 2026-05-08 16:08 | 35.44724 | 21.00461 | 35024 ft | 497 kts | 120° |
| 2026-05-08 16:08 | 35.41698 | 21.08022 | 35030 ft | 497 kts | 120° |
| 2026-05-08 16:09 | 35.39135 | 21.14403 | 35020 ft | 497 kts | 121° |
| 2026-05-08 16:09 | 35.35584 | 21.23230 | 35032 ft | 497 kts | 121° |
| 2026-05-08 16:10 | 35.32521 | 21.30829 | 35041 ft | 496 kts | 121° |
| 2026-05-08 16:10 | 35.29463 | 21.38401 | 35036 ft | 496 kts | 121° |
| 2026-05-08 16:11 | 35.26399 | 21.45969 | 35039 ft | 495 kts | 121° |
| 2026-05-08 16:11 | 35.23336 | 21.53519 | 35047 ft | 495 kts | 121° |
| 2026-05-08 16:12 | 35.20275 | 21.61044 | 35046 ft | 494 kts | 121° |
| 2026-05-08 16:12 | 35.17212 | 21.68559 | 35046 ft | 493 kts | 121° |
| 2026-05-08 16:13 | 35.14148 | 21.76056 | 35046 ft | 493 kts | 121° |
| 2026-05-08 16:13 | 35.11103 | 21.83494 | 35039 ft | 493 kts | 121° |
| 2026-05-08 16:14 | 35.08032 | 21.90976 | 35056 ft | 493 kts | 121° |
| 2026-05-08 16:14 | 35.04950 | 21.98468 | 35062 ft | 494 kts | 121° |
| 2026-05-08 16:15 | 35.01859 | 22.05966 | 35061 ft | 495 kts | 122° |
| 2026-05-08 16:15 | 34.98761 | 22.13464 | 35062 ft | 496 kts | 122° |
| 2026-05-08 16:16 | 34.95647 | 22.20983 | 35065 ft | 497 kts | 122° |
| 2026-05-08 16:16 | 34.92522 | 22.28513 | 35068 ft | 498 kts | 122° |
| 2026-05-08 16:17 | 34.89918 | 22.34774 | 35073 ft | 499 kts | 122° |
| 2026-05-08 16:17 | 34.86242 | 22.43595 | 35072 ft | 500 kts | 122° |
| 2026-05-08 16:18 | 34.83110 | 22.51089 | 35056 ft | 500 kts | 122° |
| 2026-05-08 16:18 | 34.79945 | 22.58648 | 35074 ft | 500 kts | 122° |
| 2026-05-08 16:19 | 34.76780 | 22.66189 | 35083 ft | 501 kts | 122° |
| 2026-05-08 16:19 | 34.73604 | 22.73740 | 35093 ft | 501 kts | 122° |
| 2026-05-08 16:20 | 34.70417 | 22.81297 | 35077 ft | 502 kts | 122° |
| 2026-05-08 16:20 | 34.67231 | 22.88837 | 35111 ft | 502 kts | 122° |
| 2026-05-08 16:21 | 34.64034 | 22.96388 | 35098 ft | 502 kts | 122° |
| 2026-05-08 16:21 | 34.60857 | 23.03884 | 35104 ft | 503 kts | 122° |
| 2026-05-08 16:22 | 34.58181 | 23.10214 | 35105 ft | 503 kts | 122° |
| 2026-05-08 16:22 | 34.54457 | 23.19011 | 35112 ft | 504 kts | 122° |
| 2026-05-08 16:23 | 34.51237 | 23.26592 | 35113 ft | 506 kts | 122° |
| 2026-05-08 16:23 | 34.48007 | 23.34179 | 35118 ft | 507 kts | 122° |
| 2026-05-08 16:24 | 34.44762 | 23.41786 | 35120 ft | 508 kts | 122° |
| 2026-05-08 16:24 | 34.41505 | 23.49402 | 35125 ft | 509 kts | 121° |
| 2026-05-08 16:25 | 34.38243 | 23.57014 | 35117 ft | 509 kts | 122° |
| 2026-05-08 16:25 | 34.34996 | 23.64575 | 35121 ft | 509 kts | 122° |
| 2026-05-08 16:26 | 34.31729 | 23.72163 | 35127 ft | 508 kts | 122° |
| 2026-05-08 16:26 | 34.28992 | 23.78508 | 35121 ft | 507 kts | 121° |
| 2026-05-08 16:27 | 34.25730 | 23.86054 | 35123 ft | 505 kts | 121° |
| 2026-05-08 16:27 | 34.22478 | 23.93562 | 35129 ft | 503 kts | 122° |
| 2026-05-08 16:28 | 34.19252 | 24.00992 | 35131 ft | 502 kts | 122° |
| 2026-05-08 16:28 | 34.16004 | 24.08457 | 35123 ft | 501 kts | 121° |
| 2026-05-08 16:29 | 34.12763 | 24.15887 | 35128 ft | 500 kts | 121° |
| 2026-05-08 16:29 | 34.09522 | 24.23306 | 35135 ft | 499 kts | 121° |
| 2026-05-08 16:30 | 34.06282 | 24.30703 | 35140 ft | 499 kts | 121° |
| 2026-05-08 16:30 | 34.03039 | 24.38093 | 35139 ft | 499 kts | 121° |
| 2026-05-08 16:31 | 33.99481 | 24.45216 | 35135 ft | 492 kts | 133° |
| 2026-05-08 16:31 | 33.94680 | 24.50948 | 35127 ft | 484 kts | 144° |
| 2026-05-08 16:32 | 33.89610 | 24.56279 | 35137 ft | 484 kts | 144° |
| 2026-05-08 16:32 | 33.84569 | 24.61612 | 35144 ft | 486 kts | 144° |
| 2026-05-08 16:33 | 33.79503 | 24.67023 | 35143 ft | 488 kts | 144° |
| 2026-05-08 16:33 | 33.74426 | 24.72460 | 35143 ft | 490 kts | 144° |
| 2026-05-08 16:34 | 33.69329 | 24.77914 | 35142 ft | 491 kts | 144° |
| 2026-05-08 16:34 | 33.64223 | 24.83365 | 35141 ft | 491 kts | 144° |
| 2026-05-08 16:35 | 33.59110 | 24.88813 | 35136 ft | 492 kts | 143° |
| 2026-05-08 16:35 | 33.53986 | 24.94263 | 35143 ft | 492 kts | 143° |
| 2026-05-08 16:36 | 33.48856 | 24.99709 | 35144 ft | 492 kts | 144° |
| 2026-05-08 16:36 | 33.43727 | 25.05146 | 35138 ft | 492 kts | 143° |
| 2026-05-08 16:37 | 33.38595 | 25.10578 | 35145 ft | 492 kts | 143° |
| 2026-05-08 16:37 | 33.33495 | 25.15966 | 35144 ft | 492 kts | 143° |
| 2026-05-08 16:38 | 33.28367 | 25.21376 | 35145 ft | 491 kts | 143° |
| 2026-05-08 16:38 | 33.23234 | 25.26781 | 35146 ft | 491 kts | 143° |
| 2026-05-08 16:39 | 33.18104 | 25.32175 | 35146 ft | 491 kts | 143° |
| 2026-05-08 16:39 | 33.12988 | 25.37545 | 35148 ft | 490 kts | 143° |
| 2026-05-08 16:40 | 33.07863 | 25.42916 | 35145 ft | 490 kts | 143° |
| 2026-05-08 16:40 | 33.02746 | 25.48270 | 35147 ft | 489 kts | 143° |
| 2026-05-08 16:41 | 32.97625 | 25.53619 | 35143 ft | 489 kts | 143° |
| 2026-05-08 16:42 | 32.89948 | 25.61623 | 35145 ft | 488 kts | 143° |
| 2026-05-08 16:42 | 32.84836 | 25.66941 | 35149 ft | 488 kts | 142° |
| 2026-05-08 16:43 | 32.79724 | 25.72252 | 35145 ft | 487 kts | 142° |
| 2026-05-08 16:43 | 32.74620 | 25.77546 | 35150 ft | 487 kts | 143° |
| 2026-05-08 16:44 | 32.69547 | 25.82799 | 35135 ft | 486 kts | 142° |
| 2026-05-08 16:44 | 32.64447 | 25.88073 | 35144 ft | 485 kts | 142° |
| 2026-05-08 16:45 | 32.59357 | 25.93326 | 35153 ft | 485 kts | 142° |
| 2026-05-08 16:45 | 32.54273 | 25.98566 | 35151 ft | 484 kts | 142° |
| 2026-05-08 16:46 | 32.49195 | 26.03792 | 35150 ft | 483 kts | 142° |
| 2026-05-08 16:46 | 32.44122 | 26.09004 | 35157 ft | 482 kts | 142° |
| 2026-05-08 16:47 | 32.39042 | 26.14216 | 35156 ft | 482 kts | 142° |
| 2026-05-08 16:47 | 32.33976 | 26.19405 | 35151 ft | 482 kts | 142° |
| 2026-05-08 16:48 | 32.28912 | 26.24583 | 35152 ft | 481 kts | 142° |
| 2026-05-08 16:48 | 32.23847 | 26.29755 | 35149 ft | 481 kts | 142° |
| 2026-05-08 16:49 | 32.18767 | 26.34934 | 35158 ft | 482 kts | 142° |
| 2026-05-08 16:49 | 32.13692 | 26.40101 | 35156 ft | 482 kts | 142° |
| 2026-05-08 16:50 | 32.08608 | 26.45269 | 35156 ft | 483 kts | 142° |
| 2026-05-08 16:50 | 32.03516 | 26.50436 | 35151 ft | 483 kts | 142° |
| 2026-05-08 16:51 | 31.98419 | 26.55602 | 35159 ft | 484 kts | 142° |
| 2026-05-08 16:51 | 31.93349 | 26.60732 | 35156 ft | 484 kts | 142° |
| 2026-05-08 16:52 | 31.88234 | 26.65900 | 35153 ft | 484 kts | 142° |
| 2026-05-08 16:52 | 31.83120 | 26.71058 | 35157 ft | 484 kts | 142° |
| 2026-05-08 16:53 | 31.75439 | 26.78792 | 35152 ft | 484 kts | 142° |
| 2026-05-08 16:53 | 31.70325 | 26.83932 | 35157 ft | 484 kts | 142° |
| 2026-05-08 16:54 | 31.65207 | 26.89067 | 35161 ft | 483 kts | 142° |
| 2026-05-08 16:54 | 31.60103 | 26.94181 | 35156 ft | 483 kts | 142° |
| 2026-05-08 16:55 | 31.54992 | 26.99294 | 35160 ft | 482 kts | 142° |
| 2026-05-08 16:55 | 31.49892 | 27.04389 | 35160 ft | 481 kts | 142° |
| 2026-05-08 16:56 | 31.44791 | 27.09477 | 35160 ft | 481 kts | 142° |
| 2026-05-08 16:56 | 31.39692 | 27.14555 | 35153 ft | 480 kts | 142° |
| 2026-05-08 16:57 | 31.34632 | 27.19587 | 35161 ft | 480 kts | 142° |
| 2026-05-08 16:57 | 31.30046 | 27.25281 | 35148 ft | 485 kts | 125° |
| 2026-05-08 16:58 | 31.26328 | 27.31856 | 35147 ft | 485 kts | 124° |
| 2026-05-08 16:58 | 31.22600 | 27.38451 | 35162 ft | 486 kts | 125° |
| 2026-05-08 16:59 | 31.18814 | 27.44998 | 35158 ft | 486 kts | 125° |
| 2026-05-08 16:59 | 31.15031 | 27.51498 | 35174 ft | 487 kts | 125° |
| 2026-05-08 17:00 | 31.11209 | 27.58027 | 35158 ft | 487 kts | 126° |
| 2026-05-08 17:00 | 31.07330 | 27.64524 | 35158 ft | 487 kts | 126° |
| 2026-05-08 17:01 | 31.03445 | 27.71003 | 35156 ft | 487 kts | 126° |
| 2026-05-08 17:01 | 30.99571 | 27.77468 | 35149 ft | 486 kts | 126° |
| 2026-05-08 17:02 | 30.95703 | 27.83921 | 35150 ft | 485 kts | 126° |
| 2026-05-08 17:02 | 30.91836 | 27.90364 | 35162 ft | 484 kts | 126° |
| 2026-05-08 17:03 | 30.87971 | 27.96793 | 35149 ft | 484 kts | 126° |
| 2026-05-08 17:03 | 30.84112 | 28.03200 | 35157 ft | 483 kts | 126° |
| 2026-05-08 17:04 | 30.80250 | 28.09602 | 35152 ft | 483 kts | 126° |
| 2026-05-08 17:04 | 30.76393 | 28.15986 | 35143 ft | 482 kts | 126° |
| 2026-05-08 17:05 | 30.72553 | 28.22333 | 35139 ft | 482 kts | 126° |
| 2026-05-08 17:05 | 30.68694 | 28.28699 | 35142 ft | 482 kts | 126° |
| 2026-05-08 17:06 | 30.64828 | 28.35066 | 35118 ft | 482 kts | 126° |
| 2026-05-08 17:06 | 30.60967 | 28.41415 | 35138 ft | 481 kts | 126° |
| 2026-05-08 17:07 | 30.57103 | 28.47761 | 35124 ft | 481 kts | 126° |
| 2026-05-08 17:07 | 30.53241 | 28.54092 | 35135 ft | 481 kts | 126° |
| 2026-05-08 17:08 | 30.49376 | 28.60417 | 35134 ft | 481 kts | 126° |
| 2026-05-08 17:08 | 30.45505 | 28.66743 | 35123 ft | 481 kts | 126° |
| 2026-05-08 17:09 | 30.41662 | 28.73013 | 35128 ft | 480 kts | 126° |
| 2026-05-08 17:09 | 30.37792 | 28.79317 | 35121 ft | 480 kts | 126° |
| 2026-05-08 17:10 | 30.33918 | 28.85617 | 35118 ft | 480 kts | 126° |
| 2026-05-08 17:10 | 30.30044 | 28.91908 | 35117 ft | 480 kts | 126° |
| 2026-05-08 17:11 | 30.26163 | 28.98199 | 35097 ft | 480 kts | 126° |
| 2026-05-08 17:11 | 30.22932 | 29.03430 | 35097 ft | 480 kts | 126° |
| 2026-05-08 17:12 | 30.19048 | 29.09711 | 35101 ft | 480 kts | 127° |
| 2026-05-08 17:12 | 30.15161 | 29.15978 | 35101 ft | 480 kts | 127° |
| 2026-05-08 17:13 | 30.11276 | 29.22254 | 35099 ft | 480 kts | 126° |
| 2026-05-08 17:13 | 30.07460 | 29.28580 | 35091 ft | 480 kts | 126° |
| 2026-05-08 17:14 | 30.03651 | 29.34928 | 35096 ft | 481 kts | 126° |
| 2026-05-08 17:14 | 29.99832 | 29.41264 | 35091 ft | 481 kts | 126° |
| 2026-05-08 17:15 | 29.96003 | 29.47592 | 35093 ft | 481 kts | 126° |
| 2026-05-08 17:15 | 29.92165 | 29.53919 | 35091 ft | 482 kts | 126° |
| 2026-05-08 17:16 | 29.88342 | 29.60213 | 35082 ft | 482 kts | 126° |
| 2026-05-08 17:16 | 29.84485 | 29.66552 | 35081 ft | 483 kts | 126° |
| 2026-05-08 17:17 | 29.80622 | 29.72894 | 35075 ft | 483 kts | 126° |
| 2026-05-08 17:17 | 29.76755 | 29.79231 | 35078 ft | 484 kts | 126° |
| 2026-05-08 17:18 | 29.72878 | 29.85575 | 35071 ft | 484 kts | 126° |
| 2026-05-08 17:18 | 29.69019 | 29.91880 | 35072 ft | 485 kts | 126° |
| 2026-05-08 17:19 | 29.65133 | 29.98218 | 35068 ft | 485 kts | 126° |
| 2026-05-08 17:19 | 29.61239 | 30.04561 | 35067 ft | 485 kts | 126° |
| 2026-05-08 17:20 | 29.57347 | 30.10890 | 35059 ft | 485 kts | 126° |
| 2026-05-08 17:20 | 29.53448 | 30.17219 | 35043 ft | 485 kts | 125° |
| 2026-05-08 17:21 | 29.49552 | 30.23535 | 35052 ft | 485 kts | 125° |
| 2026-05-08 17:21 | 29.45652 | 30.29848 | 35060 ft | 484 kts | 125° |
| 2026-05-08 17:22 | 29.41748 | 30.36158 | 35058 ft | 484 kts | 125° |
| 2026-05-08 17:22 | 29.37596 | 30.42203 | 35052 ft | 483 kts | 133° |
| 2026-05-08 17:23 | 29.32913 | 30.47724 | 35043 ft | 483 kts | 135° |
| 2026-05-08 17:23 | 29.28192 | 30.53194 | 35046 ft | 481 kts | 135° |
| 2026-05-08 17:24 | 29.25886 | 30.55899 | 35019 ft | 469 kts | 135° |
| 2026-05-08 17:24 | 29.23644 | 30.58547 | 35024 ft | 458 kts | 134° |
| 2026-05-08 17:24 | 29.19241 | 30.63772 | 35053 ft | 456 kts | 134° |
| 2026-05-08 17:25 | 29.14869 | 30.68963 | 35053 ft | 457 kts | 134° |
| 2026-05-08 17:25 | 29.10451 | 30.74199 | 35052 ft | 457 kts | 134° |
| 2026-05-08 17:26 | 29.06029 | 30.79432 | 35049 ft | 458 kts | 134° |
| 2026-05-08 17:26 | 29.01600 | 30.84664 | 35048 ft | 458 kts | 134° |
| 2026-05-08 17:27 | 28.97168 | 30.89894 | 35044 ft | 457 kts | 134° |
| 2026-05-08 17:27 | 28.92744 | 30.95107 | 35046 ft | 457 kts | 134° |
| 2026-05-08 17:28 | 28.88325 | 31.00307 | 35046 ft | 456 kts | 134° |
| 2026-05-08 17:28 | 28.83920 | 31.05485 | 35043 ft | 455 kts | 134° |
| 2026-05-08 17:29 | 28.79511 | 31.10660 | 35051 ft | 455 kts | 134° |
| 2026-05-08 17:29 | 28.75101 | 31.15829 | 35052 ft | 454 kts | 134° |
| 2026-05-08 17:30 | 28.70700 | 31.20982 | 35049 ft | 453 kts | 134° |
| 2026-05-08 17:30 | 28.66357 | 31.26261 | 35064 ft | 463 kts | 131° |
| 2026-05-08 17:31 | 28.61994 | 31.31829 | 35071 ft | 478 kts | 131° |
| 2026-05-08 17:31 | 28.57543 | 31.37497 | 35062 ft | 486 kts | 131° |
| 2026-05-08 17:32 | 28.53326 | 31.43461 | 35056 ft | 479 kts | 122° |
| 2026-05-08 17:32 | 28.49730 | 31.49794 | 35057 ft | 476 kts | 121° |
| 2026-05-08 17:33 | 28.46162 | 31.56148 | 35054 ft | 477 kts | 121° |
| 2026-05-08 17:33 | 28.42541 | 31.62471 | 35052 ft | 478 kts | 122° |
| 2026-05-08 17:34 | 28.38881 | 31.68784 | 35047 ft | 478 kts | 122° |
| 2026-05-08 17:34 | 28.35205 | 31.75097 | 35043 ft | 479 kts | 122° |
| 2026-05-08 17:35 | 28.31529 | 31.81404 | 35044 ft | 479 kts | 122° |
| 2026-05-08 17:35 | 28.27844 | 31.87722 | 35043 ft | 480 kts | 122° |
| 2026-05-08 17:36 | 28.24155 | 31.94037 | 35049 ft | 480 kts | 122° |
| 2026-05-08 17:36 | 28.20494 | 32.00297 | 35042 ft | 479 kts | 122° |
| 2026-05-08 17:37 | 28.16807 | 32.06591 | 35044 ft | 479 kts | 122° |
| 2026-05-08 17:37 | 28.13120 | 32.12875 | 35038 ft | 479 kts | 122° |
| 2026-05-08 17:38 | 28.09433 | 32.19150 | 35029 ft | 478 kts | 122° |
| 2026-05-08 17:38 | 28.05742 | 32.25424 | 35024 ft | 478 kts | 122° |
| 2026-05-08 17:39 | 28.02049 | 32.31691 | 34646 ft | 479 kts | 122° |
| 2026-05-08 17:39 | 28.00209 | 32.34809 | 34288 ft | 473 kts | 122° |
| 2026-05-08 17:39 | 27.98390 | 32.37890 | 33857 ft | 470 kts | 122° |
| 2026-05-08 17:40 | 27.96579 | 32.40954 | 33407 ft | 466 kts | 122° |
| 2026-05-08 17:40 | 27.94782 | 32.43995 | 32988 ft | 463 kts | 122° |
| 2026-05-08 17:40 | 27.92997 | 32.47011 | 32577 ft | 459 kts | 122° |
| 2026-05-08 17:40 | 27.91226 | 32.50004 | 32180 ft | 456 kts | 122° |
| 2026-05-08 17:41 | 27.89463 | 32.52980 | 31769 ft | 453 kts | 122° |
| 2026-05-08 17:41 | 27.87715 | 32.55929 | 31389 ft | 450 kts | 122° |
| 2026-05-08 17:41 | 27.86005 | 32.58811 | 31012 ft | 447 kts | 122° |
| 2026-05-08 17:41 | 27.84278 | 32.61720 | 30630 ft | 444 kts | 122° |
| 2026-05-08 17:42 | 27.82561 | 32.64611 | 30243 ft | 442 kts | 122° |
| 2026-05-08 17:42 | 27.80852 | 32.67486 | 29812 ft | 439 kts | 123° |
| 2026-05-08 17:42 | 27.79157 | 32.70337 | 29379 ft | 436 kts | 123° |
| 2026-05-08 17:42 | 27.77469 | 32.73173 | 28952 ft | 433 kts | 123° |
| 2026-05-08 17:43 | 27.75791 | 32.75991 | 28556 ft | 429 kts | 123° |
| 2026-05-08 17:43 | 27.74133 | 32.78773 | 28164 ft | 426 kts | 123° |
| 2026-05-08 17:43 | 27.72483 | 32.81540 | 27764 ft | 423 kts | 123° |
| 2026-05-08 17:43 | 27.70844 | 32.84287 | 27372 ft | 420 kts | 123° |
| 2026-05-08 17:44 | 27.69216 | 32.87013 | 26997 ft | 417 kts | 123° |
| 2026-05-08 17:44 | 27.67599 | 32.89719 | 26618 ft | 414 kts | 123° |
| 2026-05-08 17:44 | 27.66013 | 32.92372 | 26249 ft | 412 kts | 123° |
| 2026-05-08 17:44 | 27.64415 | 32.95044 | 25870 ft | 409 kts | 123° |
| 2026-05-08 17:45 | 27.62828 | 32.97695 | 25490 ft | 407 kts | 123° |
| 2026-05-08 17:45 | 27.61246 | 33.00338 | 25105 ft | 405 kts | 123° |
| 2026-05-08 17:45 | 27.59674 | 33.02960 | 24747 ft | 403 kts | 123° |
| 2026-05-08 17:45 | 27.58106 | 33.05575 | 24369 ft | 401 kts | 123° |
| 2026-05-08 17:46 | 27.56543 | 33.08181 | 23991 ft | 400 kts | 123° |
| 2026-05-08 17:46 | 27.54987 | 33.10773 | 23620 ft | 399 kts | 123° |
| 2026-05-08 17:46 | 27.53432 | 33.13361 | 23197 ft | 398 kts | 123° |
| 2026-05-08 17:46 | 27.51884 | 33.15936 | 22781 ft | 395 kts | 123° |
| 2026-05-08 17:47 | 27.50347 | 33.18493 | 22402 ft | 392 kts | 123° |
| 2026-05-08 17:47 | 27.48820 | 33.21031 | 22028 ft | 390 kts | 123° |
| 2026-05-08 17:47 | 27.47303 | 33.23549 | 21655 ft | 387 kts | 123° |
| 2026-05-08 17:47 | 27.46306 | 33.25204 | 21417 ft | 385 kts | 123° |
| 2026-05-08 17:48 | 27.44306 | 33.28522 | 20928 ft | 382 kts | 123° |
| 2026-05-08 17:48 | 27.42819 | 33.30988 | 20573 ft | 379 kts | 123° |
| 2026-05-08 17:48 | 27.41336 | 33.33444 | 20212 ft | 377 kts | 123° |
| 2026-05-08 17:48 | 27.39868 | 33.35876 | 19857 ft | 375 kts | 123° |
| 2026-05-08 17:49 | 27.38404 | 33.38300 | 19499 ft | 373 kts | 123° |
| 2026-05-08 17:49 | 27.37036 | 33.40775 | 19144 ft | 371 kts | 119° |
| 2026-05-08 17:49 | 27.35772 | 33.43302 | 18786 ft | 370 kts | 118° |
| 2026-05-08 17:49 | 27.34544 | 33.45836 | 18410 ft | 369 kts | 118° |
| 2026-05-08 17:50 | 27.33335 | 33.48332 | 18022 ft | 368 kts | 118° |
| 2026-05-08 17:50 | 27.32106 | 33.50851 | 17624 ft | 366 kts | 118° |
| 2026-05-08 17:50 | 27.30881 | 33.53343 | 17264 ft | 364 kts | 118° |
| 2026-05-08 17:50 | 27.29655 | 33.55821 | 16902 ft | 361 kts | 118° |
| 2026-05-08 17:51 | 27.28434 | 33.58280 | 16548 ft | 359 kts | 118° |
| 2026-05-08 17:51 | 27.27219 | 33.60723 | 16190 ft | 357 kts | 118° |
| 2026-05-08 17:51 | 27.26010 | 33.63150 | 15837 ft | 354 kts | 118° |
| 2026-05-08 17:51 | 27.24808 | 33.65562 | 15496 ft | 352 kts | 118° |
| 2026-05-08 17:52 | 27.23616 | 33.67954 | 15144 ft | 350 kts | 118° |
| 2026-05-08 17:52 | 27.22431 | 33.70331 | 14791 ft | 348 kts | 118° |
| 2026-05-08 17:52 | 27.20151 | 33.75103 | 14100 ft | 344 kts | 108° |
| 2026-05-08 17:53 | 27.19834 | 33.77732 | 13755 ft | 339 kts | 83° |
| 2026-05-08 17:53 | 27.20420 | 33.80266 | 13246 ft | 337 kts | 61° |
| 2026-05-08 17:53 | 27.21741 | 33.82424 | 12765 ft | 334 kts | 44° |
| 2026-05-08 17:53 | 27.23544 | 33.84046 | 12390 ft | 330 kts | 33° |
| 2026-05-08 17:54 | 27.25449 | 33.85472 | 12026 ft | 327 kts | 31° |
| 2026-05-08 17:54 | 27.27359 | 33.86856 | 11684 ft | 325 kts | 31° |
| 2026-05-08 17:54 | 27.29246 | 33.88223 | 11403 ft | 320 kts | 30° |
| 2026-05-08 17:54 | 27.31104 | 33.89581 | 11082 ft | 318 kts | 32° |
| 2026-05-08 17:55 | 27.32948 | 33.90941 | 10754 ft | 316 kts | 32° |
| 2026-05-08 17:55 | 27.34777 | 33.92299 | 10434 ft | 314 kts | 31° |
| 2026-05-08 17:55 | 27.36555 | 33.93627 | 10260 ft | 306 kts | 32° |
| 2026-05-08 17:55 | 27.38303 | 33.94935 | 10127 ft | 298 kts | 32° |
| 2026-05-08 17:56 | 27.40010 | 33.96214 | 9959 ft | 292 kts | 32° |
| 2026-05-08 17:56 | 27.41699 | 33.97480 | 9660 ft | 291 kts | 33° |
| 2026-05-08 17:56 | 27.43379 | 33.98741 | 9363 ft | 289 kts | 32° |
| 2026-05-08 17:56 | 27.45046 | 33.99992 | 9079 ft | 287 kts | 32° |
| 2026-05-08 17:57 | 27.46698 | 34.01233 | 8788 ft | 285 kts | 32° |
| 2026-05-08 17:57 | 27.48342 | 34.02468 | 8508 ft | 283 kts | 33° |
| 2026-05-08 17:57 | 27.49443 | 34.03296 | 8327 ft | 281 kts | 32° |
| 2026-05-08 17:57 | 27.51590 | 34.04908 | 7977 ft | 278 kts | 32° |
| 2026-05-08 17:58 | 27.52661 | 34.05702 | 7797 ft | 277 kts | 31° |
| 2026-05-08 17:58 | 27.54337 | 34.06745 | 7561 ft | 274 kts | 26° |
| 2026-05-08 17:58 | 27.56032 | 34.07703 | 7298 ft | 272 kts | 25° |
| 2026-05-08 17:58 | 27.57727 | 34.08647 | 7026 ft | 271 kts | 26° |
| 2026-05-08 17:59 | 27.59410 | 34.09590 | 6755 ft | 269 kts | 26° |
| 2026-05-08 17:59 | 27.61079 | 34.10532 | 6489 ft | 268 kts | 26° |
| 2026-05-08 17:59 | 27.62745 | 34.11478 | 6208 ft | 267 kts | 26° |
| 2026-05-08 17:59 | 27.64398 | 34.12421 | 5927 ft | 266 kts | 26° |
| 2026-05-08 18:00 | 27.66050 | 34.13366 | 5646 ft | 265 kts | 26° |
| 2026-05-08 18:00 | 27.69330 | 34.15247 | 5099 ft | 263 kts | 27° |
| 2026-05-08 18:00 | 27.70962 | 34.16185 | 4828 ft | 263 kts | 27° |
| 2026-05-08 18:01 | 27.72589 | 34.17121 | 4587 ft | 260 kts | 27° |
| 2026-05-08 18:01 | 27.74174 | 34.18034 | 4461 ft | 253 kts | 26° |
| 2026-05-08 18:01 | 27.75718 | 34.18922 | 4339 ft | 245 kts | 26° |
| 2026-05-08 18:01 | 27.77214 | 34.19784 | 4226 ft | 239 kts | 26° |
| 2026-05-08 18:02 | 27.78672 | 34.20623 | 4130 ft | 232 kts | 26° |
| 2026-05-08 18:02 | 27.80086 | 34.21438 | 4022 ft | 225 kts | 26° |
| 2026-05-08 18:02 | 27.81447 | 34.22242 | 3853 ft | 219 kts | 31° |
| 2026-05-08 18:02 | 27.82611 | 34.23276 | 3708 ft | 210 kts | 40° |
| 2026-05-08 18:03 | 27.83662 | 34.24395 | 3456 ft | 206 kts | 41° |
| 2026-05-08 18:03 | 27.84696 | 34.25499 | 3215 ft | 203 kts | 40° |
| 2026-05-08 18:03 | 27.85717 | 34.26575 | 2976 ft | 198 kts | 40° |
| 2026-05-08 18:03 | 27.86722 | 34.27633 | 2717 ft | 194 kts | 40° |
| 2026-05-08 18:04 | 27.87705 | 34.28664 | 2453 ft | 191 kts | 41° |
| 2026-05-08 18:04 | 27.88668 | 34.29674 | 2217 ft | 187 kts | 41° |
| 2026-05-08 18:04 | 27.89607 | 34.30661 | 1993 ft | 182 kts | 41° |
| 2026-05-08 18:04 | 27.90531 | 34.31632 | 1779 ft | 179 kts | 41° |
| 2026-05-08 18:05 | 27.91440 | 34.32586 | 1557 ft | 176 kts | 40° |
| 2026-05-08 18:05 | 27.92310 | 34.33499 | 1376 ft | 165 kts | 39° |
| 2026-05-08 18:05 | 27.93120 | 34.34349 | 1151 ft | 156 kts | 39° |
| 2026-05-08 18:05 | 27.93897 | 34.35165 | 935 ft | 151 kts | 39° |
| 2026-05-08 18:06 | 27.94664 | 34.35968 | 768 ft | 149 kts | 39° |
| 2026-05-08 18:06 | 27.95432 | 34.36771 | 564 ft | 151 kts | 39° |
| 2026-05-08 18:06 | 27.96188 | 34.37574 | 389 ft | 150 kts | 39° |
| 2026-05-08 18:06 | 27.96955 | 34.38367 | 193 ft | 148 kts | 39° |
| 2026-05-08 18:07 | 27.97636 | 34.39070 | 171 ft | 107 kts | 43° |
| 2026-05-08 18:07 | 27.98024 | 34.39473 | 174 ft | 44 kts | 42° |
| 2026-05-08 18:07 | 27.98140 | 34.39568 | 173 ft | 11 kts | 346° |
| 2026-05-08 18:07 | 27.98197 | 34.39508 | 173 ft | 11 kts | 314° |
| 2026-05-08 18:08 | 27.98249 | 34.39441 | 171 ft | 12 kts | 299° |
| 2026-05-08 18:08 | 27.98211 | 34.39366 | 171 ft | 12 kts | 223° |
| 2026-05-08 18:08 | 27.98145 | 34.39299 | 171 ft | 14 kts | 222° |
| 2026-05-08 18:08 | 27.98064 | 34.39213 | 171 ft | 18 kts | 223° |
| 2026-05-08 18:09 | 27.97968 | 34.39114 | 171 ft | 19 kts | 223° |
| 2026-05-08 18:09 | 27.97867 | 34.39008 | 171 ft | 22 kts | 222° |
| 2026-05-08 18:09 | 27.97744 | 34.38880 | 171 ft | 26 kts | 223° |
| 2026-05-08 18:09 | 27.97615 | 34.38746 | 171 ft | 24 kts | 223° |
| 2026-05-08 18:10 | 27.97495 | 34.38620 | 171 ft | 23 kts | 223° |
| 2026-05-08 18:10 | 27.97460 | 34.38527 | 171 ft | 12 kts | 301° |
| 2026-05-08 18:10 | 27.97515 | 34.38456 | 171 ft | 12 kts | 313° |
| 2026-05-08 18:10 | 27.97569 | 34.38395 | 171 ft | 8 kts | 332° |
| 2026-05-08 18:11 | 27.97614 | 34.38425 | 171 ft | 8 kts | 41° |
| 2026-05-08 18:11 | 27.97654 | 34.38467 | 171 ft | 7 kts | 58° |
| 2026-05-08 18:11 | 27.97638 | 34.38501 | 171 ft | 5 kts | 133° |
| 2026-05-08 18:11 | 27.97627 | 34.38515 | 171 ft | 0 kts | 132° |